Weather at Cleveland Airport

Public forecast

Using degrees Fahrenheit for public forecast. Weather courtesy of forecast.io.

Closest aviation weather report (METAR) to Cleveland Airport

Closest report is Randolph Air Force Base, 14.7 nm (27.1 km) NNW.

2024/07/20 14:55 (retrieved 1 hour ago)

KRND 201455Z AUTO 17004KT 10SM CLR 29/23 A3003 RMK AO2 SLP160 T02890233 52006

Closest aviation forecast (TAF) to Cleveland Airport

Forecast is more than 12 hours old.

Closest forecast is Randolph Air Force Base, 14.7 nm (27.1 km) NNW.

2024/07/19 16:54 Ammendment (retrieved 23 hours ago)

TAF AMD KRND 191647Z 1916/2022 03009KT 9999 SCT030 SCT090 BKN200 QNH2998INS TEMPO 1916/1922 VRB15G25KT 9000 -TSRA BKN040CB BKN100 BECMG 1922/1923 12009KT 9999 SCT050 SCT250 QNH2992INS TX35/1922Z TN25/2012Z LAST NO AMDS AFT 2000 NEXT 2210